Weather at Luis Munoz Marin International Airport

Public forecast

Using degrees Celsius for public forecast. Weather courtesy of forecast.io.

Current aviation weather report (METAR) for Luis Munoz Marin International Airport

Report is more than 2 hours old.

Retrieved 2021/08/02 09:56 UTC (3 hours ago):

TJSJ 020956Z 00000KT 10SM SCT023 SCT055 26/23 A3006 RMK AO2 SLP175 VCSH SE W NW T02610233

Aviation forecast (TAF) for Luis Munoz Marin International Airport

Retrieved 2021/08/02 12:42 UTC (2 minutes ago):

TAF TJSJ 021139Z 0212/0312 08007KT P6SM VCSH SCT025 FM021500 06014KT P6SM VCSH SCT025 SCT035 FM022300 09006KT P6SM VCSH SCT025 SCT050